| time (UTC) | temp F | wind direction | speed knots | gust knots | rain 1hr in | rain 24hr in | rain mn in | humidity % | barometer mb |
| 20260508020353 | 59 | 180 | 3.5 | 7.0 | 0.00 | 0.00 | 0.00 | 61 | 1008.3 |
| 20260508015851 | 59 | 175 | 2.6 | 7.8 | 0.00 | 0.00 | 0.00 | 61 | 1008.3 |
| 20260508015617 | 60 | 185 | 1.7 | 7.8 | 0.00 | 0.00 | 0.00 | 60 | 1008.2 |
| 20260508014845 | 60 | 178 | 1.7 | 4.3 | 0.00 | 0.00 | 0.00 | 59 | 1008.2 |
| 20260508014343 | 60 | 173 | 1.7 | 6.1 | 0.00 | 0.00 | 0.00 | 59 | 1008.2 |
| 20260508014114 | 61 | 186 | 1.7 | 6.1 | 0.00 | 0.00 | 0.00 | 58 | 1008.2 |
| 20260508013344 | 61 | 182 | 1.7 | 3.5 | 0.00 | 0.00 | 0.00 | 57 | 1008.2 |
| 20260508012843 | 61 | 180 | 1.7 | 4.3 | 0.00 | 0.00 | 0.00 | 56 | 1008.2 |
| 20260508012607 | 62 | 180 | 2.6 | 5.2 | 0.00 | 0.00 | 0.00 | 56 | 1008.2 |
| 20260508011841 | 62 | 181 | 3.5 | 7.0 | 0.00 | 0.00 | 0.00 | 55 | 1008.2 |
| 20260508011341 | 62 | 173 | 3.5 | 7.0 | 0.00 | 0.00 | 0.00 | 54 | 1008.1 |
| 20260508010840 | 63 | 186 | 3.5 | 6.1 | 0.00 | 0.00 | 0.00 | 53 | 1008.1 |
| 20260508010339 | 63 | 173 | 3.5 | 6.1 | 0.00 | 0.00 | 0.00 | 53 | 1008.1 |
| 20260508005841 | 64 | 185 | 3.5 | 6.1 | 0.00 | 0.00 | 0.00 | 52 | 1008.1 |
| 20260508005342 | 64 | 191 | 2.6 | 5.2 | 0.00 | 0.00 | 0.00 | 52 | 1008.1 |
| 20260508004840 | 64 | 184 | 3.5 | 6.1 | 0.00 | 0.00 | 0.00 | 51 | 1008.0 |
| 20260508004602 | 65 | 182 | 3.5 | 6.1 | 0.00 | 0.00 | 0.00 | 50 | 1008.0 |
| 20260508003837 | 65 | 172 | 3.5 | 6.1 | 0.00 | 0.00 | 0.00 | 50 | 1008.0 |
| 20260508003336 | 65 | 197 | 3.5 | 7.8 | 0.00 | 0.00 | 0.00 | 49 | 1008.0 |
| 20260508002837 | 65 | 217 | 3.5 | 9.6 | 0.00 | 0.00 | 0.00 | 49 | 1008.1 |
| 20260508002338 | 65 | 191 | 4.3 | 10.4 | 0.00 | 0.00 | 0.00 | 50 | 1008.1 |
| 20260508001834 | 65 | 188 | 4.3 | 10.4 | 0.00 | 0.00 | 0.00 | 49 | 1008.0 |
| 20260508001335 | 66 | 227 | 4.3 | 10.4 | 0.00 | 0.00 | 0.00 | 48 | 1008.1 |
| 20260508001105 | 66 | 183 | 5.2 | 13.9 | 0.00 | 0.00 | 0.00 | 48 | 1008.1 |
| 20260508000335 | 66 | 171 | 5.2 | 13.9 | 0.00 | 0.00 | 0.00 | 48 | 1008.2 |
| 20260507235835 | 66 | 215 | 6.1 | 14.8 | 0.00 | 0.00 | 0.00 | 48 | 1008.2 |
| 20260507235334 | 66 | 221 | 7.0 | 14.8 | 0.00 | 0.00 | 0.00 | 48 | 1008.2 |
| 20260507234834 | 66 | 223 | 6.1 | 11.3 | 0.00 | 0.00 | 0.00 | 48 | 1008.3 |
| 20260507234335 | 66 | 216 | 5.2 | 10.4 | 0.00 | 0.00 | 0.00 | 49 | 1008.2 |
| 20260507233835 | 67 | 221 | 6.1 | 12.2 | 0.00 | 0.00 | 0.00 | 48 | 1008.2 |
| 20260507233331 | 67 | 221 | 6.1 | 12.2 | 0.00 | 0.00 | 0.00 | 47 | 1008.2 |
| 20260507232831 | 67 | 218 | 6.1 | 11.3 | 0.00 | 0.00 | 0.00 | 47 | 1008.3 |
| 20260507232331 | 67 | 230 | 5.2 | 11.3 | 0.00 | 0.00 | 0.00 | 47 | 1008.4 |
| 20260507231830 | 67 | 229 | 6.1 | 13.9 | 0.00 | 0.00 | 0.00 | 48 | 1008.4 |
| 20260507231331 | 67 | 249 | 6.1 | 13.9 | 0.00 | 0.00 | 0.00 | 49 | 1008.4 |
| 20260507230833 | 67 | 227 | 5.2 | 13.0 | 0.00 | 0.00 | 0.00 | 49 | 1008.5 |
| 20260507230333 | 67 | 217 | 5.2 | 10.4 | 0.00 | 0.00 | 0.00 | 47 | 1008.5 |
| 20260507225834 | 67 | 211 | 5.2 | 10.4 | 0.00 | 0.00 | 0.00 | 48 | 1008.7 |
| 20260507225333 | 67 | 252 | 6.1 | 11.3 | 0.00 | 0.00 | 0.00 | 49 | 1008.7 |
| 20260507225052 | 66 | 224 | 7.0 | 13.9 | 0.00 | 0.00 | 0.00 | 49 | 1008.8 |
| 20260507224331 | 66 | 233 | 7.8 | 13.9 | 0.00 | 0.00 | 0.00 | 48 | 1008.8 |
| 20260507224051 | 66 | 227 | 7.8 | 14.8 | 0.00 | 0.00 | 0.00 | 47 | 1008.9 |
| 20260507223331 | 67 | 251 | 7.8 | 14.8 | 0.00 | 0.00 | 0.00 | 46 | 1009.0 |
| 20260507223049 | 67 | 259 | 7.0 | 13.9 | 0.00 | 0.00 | 0.00 | 48 | 1009.0 |
| 20260507222329 | 67 | 233 | 6.1 | 10.4 | 0.00 | 0.00 | 0.00 | 48 | 1009.0 |
| 20260507221828 | 67 | 244 | 5.2 | 11.3 | 0.00 | 0.00 | 0.00 | 45 | 1009.0 |
| 20260507221328 | 67 | 194 | 6.1 | 11.3 | 0.00 | 0.00 | 0.00 | 45 | 1009.0 |
| 20260507220829 | 67 | 248 | 7.0 | 13.0 | 0.00 | 0.00 | 0.00 | 47 | 1009.0 |
| 20260507220329 | 66 | 221 | 7.0 | 13.0 | 0.00 | 0.00 | 0.00 | 48 | 1009.1 |
| 20260507215827 | 66 | 227 | 7.8 | 16.5 | 0.00 | 0.00 | 0.00 | 47 | 1009.1 |
| 20260507215324 | 66 | 254 | 7.8 | 16.5 | 0.00 | 0.00 | 0.00 | 47 | 1009.1 |
| 20260507214830 | 66 | 220 | 7.8 | 15.6 | 0.00 | 0.00 | 0.00 | 49 | 1009.1 |
| 20260507214323 | 66 | 245 | 7.8 | 15.6 | 0.00 | 0.00 | 0.00 | 46 | 1009.1 |
| 20260507213818 | 66 | 238 | 7.8 | 13.9 | 0.00 | 0.00 | 0.00 | 45 | 1009.1 |
| 20260507213311 | 66 | 229 | 9.6 | 18.2 | 0.00 | 0.00 | 0.00 | 46 | 1009.1 |
| 20260507212805 | 66 | 250 | 10.4 | 18.2 | 0.00 | 0.00 | 0.00 | 45 | 1009.1 |
| 20260507212300 | 67 | 250 | 9.6 | 16.5 | 0.00 | 0.00 | 0.00 | 46 | 1009.2 |
| 20260507212026 | 66 | 254 | 8.7 | 14.8 | 0.00 | 0.00 | 0.00 | 48 | 1009.2 |
| 20260507211247 | 66 | 212 | 7.8 | 14.8 | 0.00 | 0.00 | 0.00 | 47 | 1009.1 |
| 20260507210754 | 66 | 217 | 9.6 | 18.2 | 0.00 | 0.00 | 0.00 | 46 | 1009.2 |
| 20260507210500 | 66 | 225 | 8.7 | 18.2 | 0.00 | 0.00 | 0.00 | 44 | 1009.2 |
| 20260507205729 | 66 | 252 | 7.0 | 13.0 | 0.00 | 0.00 | 0.00 | 47 | 1009.3 |
| 20260507205442 | 66 | 227 | 8.7 | 15.6 | 0.00 | 0.00 | 0.00 | 46 | 1009.3 |
| 20260507204718 | 67 | 249 | 8.7 | 15.6 | 0.00 | 0.00 | 0.00 | 45 | 1009.3 |
| 20260507204211 | 67 | 234 | 7.0 | 13.0 | 0.00 | 0.00 | 0.00 | 47 | 1009.3 |
| 20260507203705 | 67 | 240 | 8.7 | 16.5 | 0.00 | 0.00 | 0.00 | 44 | 1009.5 |
| 20260507203159 | 67 | 209 | 10.4 | 16.5 | 0.00 | 0.00 | 0.00 | 43 | 1009.4 |
| 20260507202654 | 68 | 233 | 11.3 | 16.5 | 0.00 | 0.00 | 0.00 | 44 | 1009.5 |
| 20260507202147 | 68 | 244 | 12.2 | 18.2 | 0.00 | 0.00 | 0.00 | 43 | 1009.5 |
| 20260507201909 | 67 | 226 | 10.4 | 18.2 | 0.00 | 0.00 | 0.00 | 42 | 1009.6 |
| 20260507201406 | 66 | 239 | 7.8 | 18.2 | 0.00 | 0.00 | 0.00 | 45 | 1009.5 |
| 20260507200642 | 66 | 169 | 7.0 | 13.9 | 0.00 | 0.00 | 0.00 | 44 | 1009.7 |
| 20260507200123 | 66 | 201 | 7.8 | 13.0 | 0.00 | 0.00 | 0.00 | 45 | 1009.9 |
| 20260507195618 | 67 | 161 | 8.7 | 13.0 | 0.00 | 0.00 | 0.00 | 46 | 1010.0 |
| 20260507195111 | 67 | 231 | 8.7 | 14.8 | 0.00 | 0.00 | 0.00 | 45 | 1010.2 |
| 20260507194605 | 67 | 238 | 8.7 | 14.8 | 0.00 | 0.00 | 0.00 | 47 | 1010.2 |
| 20260507194059 | 67 | 261 | 9.6 | 16.5 | 0.00 | 0.00 | 0.00 | 45 | 1010.2 |
| 20260507193553 | 67 | 248 | 8.7 | 16.5 | 0.00 | 0.00 | 0.00 | 44 | 1010.4 |
| 20260507193047 | 66 | 254 | 9.6 | 19.1 | 0.00 | 0.00 | 0.00 | 47 | 1010.4 |
| 20260507192542 | 66 | 245 | 9.6 | 19.1 | 0.00 | 0.00 | 0.00 | 47 | 1010.4 |
| 20260507192036 | 65 | 261 | 8.7 | 16.5 | 0.00 | 0.00 | 0.00 | 46 | 1010.5 |
| 20260507191529 | 65 | 269 | 7.8 | 16.5 | 0.00 | 0.00 | 0.00 | 46 | 1010.5 |
| 20260507191023 | 65 | 221 | 8.7 | 13.9 | 0.00 | 0.00 | 0.00 | 46 | 1010.6 |
| 20260507190741 | 66 | 214 | 9.6 | 16.5 | 0.00 | 0.00 | 0.00 | 45 | 1010.7 |
| 20260507190014 | 66 | 242 | 9.6 | 16.5 | 0.00 | 0.00 | 0.00 | 45 | 1010.6 |
| 20260507185732 | 66 | 261 | 9.6 | 17.4 | 0.00 | 0.00 | 0.00 | 48 | 1010.7 |
| 20260507185154 | 65 | 215 | 9.6 | 16.5 | 0.00 | 0.00 | 0.00 | 47 | 1010.7 |
| 20260507185047 | 66 | 245 | 9.6 | 17.4 | 0.00 | 0.00 | 0.00 | 46 | 1010.7 |
| 20260507183947 | 65 | 262 | 8.7 | 15.6 | 0.00 | 0.00 | 0.00 | 47 | 1010.7 |
| 20260507183442 | 65 | 275 | 10.4 | 17.4 | 0.00 | 0.00 | 0.00 | 48 | 1010.8 |
| 20260507182935 | 66 | 225 | 10.4 | 17.4 | 0.00 | 0.00 | 0.00 | 45 | 1010.9 |
| 20260507182429 | 66 | 257 | 11.3 | 18.2 | 0.00 | 0.00 | 0.00 | 49 | 1011.0 |
| 20260507182142 | 66 | 217 | 11.3 | 18.2 | 0.00 | 0.00 | 0.00 | 47 | 1011.0 |
| 20260507181638 | 65 | 248 | 11.3 | 17.4 | 0.00 | 0.00 | 0.00 | 48 | 1011.0 |
| 20260507180911 | 65 | 246 | 11.3 | 18.2 | 0.00 | 0.00 | 0.00 | 48 | 1011.1 |
| 20260507180418 | 64 | 252 | 11.3 | 18.2 | 0.00 | 0.00 | 0.00 | 49 | 1011.1 |
| 20260507175900 | 65 | 242 | 11.3 | 21.7 | 0.00 | 0.00 | 0.00 | 49 | 1011.3 |
| 20260507175354 | 65 | 250 | 11.3 | 21.7 | 0.00 | 0.00 | 0.00 | 48 | 1011.2 |
| 20260507174848 | 65 | 264 | 9.6 | 16.5 | 0.00 | 0.00 | 0.00 | 49 | 1011.3 |
| 20260507174342 | 65 | 243 | 10.4 | 16.5 | 0.00 | 0.00 | 0.00 | 51 | 1011.4 |
| 20260507174058 | 64 | 257 | 12.2 | 20.0 | 0.00 | 0.00 | 0.00 | 49 | 1011.4 |
| 20260507173329 | 64 | 234 | 11.3 | 20.0 | 0.00 | 0.00 | 0.00 | 49 | 1011.4 |
| 20260507172823 | 63 | 260 | 11.3 | 20.0 | 0.00 | 0.00 | 0.00 | 50 | 1011.5 |
| 20260507172318 | 63 | 242 | 13.0 | 20.9 | 0.00 | 0.00 | 0.00 | 49 | 1011.6 |
| 20260507171811 | 63 | 233 | 13.0 | 20.9 | 0.00 | 0.00 | 0.00 | 49 | 1011.6 |
| 20260507171306 | 63 | 273 | 12.2 | 18.2 | 0.00 | 0.00 | 0.00 | 50 | 1011.8 |
| 20260507171021 | 63 | 238 | 13.0 | 18.2 | 0.00 | 0.00 | 0.00 | 49 | 1011.8 |
| 20260507170249 | 63 | 250 | 12.2 | 17.4 | 0.00 | 0.00 | 0.00 | 51 | 1011.8 |
| 20260507165751 | 62 | 261 | 12.2 | 17.4 | 0.00 | 0.00 | 0.00 | 51 | 1011.8 |
| 20260507165250 | 62 | 276 | 12.2 | 18.2 | 0.00 | 0.00 | 0.00 | 51 | 1012.0 |
| 20260507164751 | 62 | 242 | 13.0 | 20.9 | 0.00 | 0.00 | 0.00 | 50 | 1012.1 |
| 20260507164249 | 62 | 253 | 12.2 | 20.9 | 0.00 | 0.00 | 0.00 | 52 | 1012.0 |
| 20260507163749 | 62 | 259 | 12.2 | 19.1 | 0.00 | 0.00 | 0.00 | 52 | 1012.2 |
| 20260507163250 | 62 | 225 | 12.2 | 19.1 | 0.00 | 0.00 | 0.00 | 54 | 1012.3 |
| 20260507162750 | 62 | 212 | 12.2 | 18.2 | 0.00 | 0.00 | 0.00 | 54 | 1012.2 |
| 20260507162250 | 61 | 223 | 11.3 | 18.2 | 0.00 | 0.00 | 0.00 | 54 | 1012.3 |
| 20260507161749 | 60 | 277 | 12.2 | 18.2 | 0.00 | 0.00 | 0.00 | 55 | 1012.3 |
| 20260507161250 | 61 | 266 | 13.0 | 20.0 | 0.00 | 0.00 | 0.00 | 54 | 1012.4 |
| 20260507160750 | 61 | 254 | 13.0 | 20.0 | 0.00 | 0.00 | 0.00 | 54 | 1012.4 |
| 20260507160249 | 60 | 259 | 13.0 | 19.1 | 0.00 | 0.00 | 0.00 | 55 | 1012.5 |
| 20260507155749 | 60 | 242 | 11.3 | 17.4 | 0.00 | 0.00 | 0.00 | 56 | 1012.5 |
| 20260507155247 | 60 | 243 | 11.3 | 22.6 | 0.00 | 0.00 | 0.00 | 59 | 1012.5 |
| 20260507154745 | 60 | 232 | 12.2 | 22.6 | 0.00 | 0.00 | 0.00 | 56 | 1012.6 |
| 20260507154245 | 59 | 225 | 11.3 | 16.5 | 0.00 | 0.00 | 0.00 | 59 | 1012.5 |
| 20260507153745 | 59 | 221 | 11.3 | 16.5 | 0.00 | 0.00 | 0.00 | 60 | 1012.6 |
| 20260507153246 | 59 | 252 | 10.4 | 16.5 | 0.00 | 0.00 | 0.00 | 60 | 1012.5 |
| 20260507152745 | 59 | 205 | 10.4 | 16.5 | 0.00 | 0.00 | 0.00 | 60 | 1012.7 |
| 20260507152246 | 58 | 253 | 11.3 | 17.4 | 0.00 | 0.00 | 0.00 | 61 | 1012.8 |
| 20260507151746 | 58 | 240 | 12.2 | 17.4 | 0.00 | 0.00 | 0.00 | 60 | 1012.9 |
| 20260507151247 | 58 | 250 | 11.3 | 15.6 | 0.00 | 0.00 | 0.00 | 63 | 1012.7 |
| 20260507150745 | 58 | 272 | 10.4 | 15.6 | 0.00 | 0.00 | 0.00 | 62 | 1012.9 |
| 20260507150246 | 58 | 222 | 9.6 | 14.8 | 0.00 | 0.00 | 0.00 | 63 | 1012.9 |
| 20260507145746 | 57 | 269 | 9.6 | 13.9 | 0.00 | 0.00 | 0.00 | 63 | 1012.8 |
| 20260507145245 | 57 | 265 | 8.7 | 13.9 | 0.00 | 0.00 | 0.00 | 64 | 1012.9 |
| 20260507144746 | 57 | 266 | 7.0 | 11.3 | 0.00 | 0.00 | 0.00 | 66 | 1012.9 |
| 20260507144245 | 56 | 254 | 7.8 | 13.9 | 0.00 | 0.00 | 0.00 | 66 | 1012.9 |
| 20260507144234 | 56 | 257 | 7.8 | 13.9 | 0.00 | 0.00 | 0.00 | 67 | 1012.8 |
| 20260507143245 | 55 | 227 | 7.8 | 12.2 | 0.00 | 0.00 | 0.00 | 66 | 1012.9 |
| 20260507142745 | 55 | 244 | 7.8 | 12.2 | 0.00 | 0.00 | 0.00 | 66 | 1013.0 |
| 20260507142238 | 54 | 246 | 8.7 | 13.0 | 0.00 | 0.00 | 0.00 | 68 | 1013.1 |
| 20260507141732 | 54 | 231 | 7.8 | 13.0 | 0.00 | 0.00 | 0.00 | 68 | 1013.2 |
| 20260507141232 | 54 | 239 | 7.8 | 13.0 | 0.00 | 0.00 | 0.00 | 68 | 1013.2 |
| 20260507140732 | 53 | 244 | 7.8 | 14.8 | 0.00 | 0.00 | 0.00 | 69 | 1013.2 |
| 20260507140232 | 53 | 219 | 8.7 | 15.6 | 0.00 | 0.00 | 0.00 | 69 | 1013.3 |
| 20260507135734 | 53 | 267 | 8.7 | 15.6 | 0.00 | 0.00 | 0.00 | 69 | 1013.2 |
| 20260507135500 | 52 | 217 | 7.8 | 13.0 | 0.00 | 0.00 | 0.00 | 69 | 1013.3 |
| 20260507134735 | 52 | 259 | 7.8 | 11.3 | 0.00 | 0.00 | 0.00 | 70 | 1013.3 |
| 20260507134232 | 51 | 235 | 7.8 | 13.0 | 0.00 | 0.00 | 0.00 | 70 | 1013.4 |
| 20260507133732 | 51 | 186 | 7.0 | 13.0 | 0.00 | 0.00 | 0.00 | 70 | 1013.3 |
| 20260507133231 | 51 | 232 | 7.0 | 11.3 | 0.00 | 0.00 | 0.00 | 70 | 1013.4 |
| 20260507132734 | 50 | 226 | 7.0 | 11.3 | 0.00 | 0.00 | 0.00 | 70 | 1013.5 |
| 20260507132231 | 50 | 217 | 7.0 | 11.3 | 0.00 | 0.00 | 0.00 | 71 | 1013.5 |
| 20260507131731 | 49 | 254 | 7.0 | 12.2 | 0.00 | 0.00 | 0.00 | 71 | 1013.4 |
| 20260507131231 | 49 | 200 | 7.0 | 12.2 | 0.00 | 0.00 | 0.00 | 71 | 1013.5 |
| 20260507130737 | 49 | 232 | 7.0 | 13.0 | 0.00 | 0.00 | 0.00 | 72 | 1013.5 |
| 20260507130249 | 48 | 248 | 7.8 | 13.0 | 0.00 | 0.00 | 0.00 | 71 | 1013.5 |
| 20260507125737 | 48 | 262 | 7.0 | 11.3 | 0.00 | 0.00 | 0.00 | 72 | 1013.5 |
| 20260507125236 | 47 | 211 | 6.1 | 11.3 | 0.00 | 0.00 | 0.00 | 73 | 1013.5 |
| 20260507124730 | 47 | 238 | 6.1 | 9.6 | 0.00 | 0.00 | 0.00 | 73 | 1013.5 |
| 20260507124444 | 46 | 230 | 6.1 | 9.6 | 0.00 | 0.00 | 0.00 | 73 | 1013.5 |
| 20260507123718 | 46 | 216 | 5.2 | 10.4 | 0.00 | 0.00 | 0.00 | 73 | 1013.5 |
| 20260507123212 | 46 | 244 | 6.1 | 10.4 | 0.00 | 0.00 | 0.00 | 73 | 1013.5 |
| 20260507122930 | 45 | 219 | 5.2 | 10.4 | 0.00 | 0.00 | 0.00 | 73 | 1013.4 |
| 20260507122200 | 45 | 246 | 5.2 | 10.4 | 0.00 | 0.00 | 0.00 | 72 | 1013.4 |
| 20260507121921 | 45 | 229 | 5.2 | 10.4 | 0.00 | 0.00 | 0.00 | 73 | 1013.4 |
| 20260507121148 | 45 | 238 | 5.2 | 9.6 | 0.00 | 0.00 | 0.00 | 73 | 1013.4 |
| 20260507120642 | 44 | 217 | 4.3 | 9.6 | 0.00 | 0.00 | 0.00 | 73 | 1013.3 |
| 20260507120136 | 44 | 212 | 4.3 | 8.7 | 0.00 | 0.00 | 0.00 | 72 | 1013.4 |
| 20260507115848 | 44 | 223 | 4.3 | 8.7 | 0.00 | 0.00 | 0.00 | 72 | 1013.2 |
| 20260507115124 | 44 | 211 | 4.3 | 9.6 | 0.00 | 0.00 | 0.00 | 72 | 1013.2 |
| 20260507114618 | 44 | 227 | 4.3 | 9.6 | 0.00 | 0.00 | 0.00 | 71 | 1013.2 |
| 20260507114112 | 44 | 238 | 4.3 | 9.6 | 0.00 | 0.00 | 0.00 | 71 | 1013.2 |
| 20260507113606 | 44 | 203 | 4.3 | 7.8 | 0.00 | 0.00 | 0.00 | 70 | 1013.1 |
| 20260507113323 | 44 | 199 | 3.5 | 8.7 | 0.00 | 0.00 | 0.00 | 70 | 1013.1 |
| 20260507112554 | 44 | 202 | 3.5 | 8.7 | 0.00 | 0.00 | 0.00 | 69 | 1013.2 |
| 20260507112048 | 44 | 196 | 3.5 | 7.8 | 0.00 | 0.00 | 0.00 | 69 | 1013.2 |
| 20260507111542 | 44 | 223 | 3.5 | 7.8 | 0.00 | 0.00 | 0.00 | 68 | 1013.2 |
| 20260507111036 | 44 | 237 | 3.5 | 7.8 | 0.00 | 0.00 | 0.00 | 68 | 1013.3 |
| 20260507110749 | 44 | 234 | 2.6 | 7.8 | 0.00 | 0.00 | 0.00 | 67 | 1013.2 |
| 20260507110024 | 44 | 205 | 3.5 | 6.1 | 0.00 | 0.00 | 0.00 | 67 | 1013.2 |
| 20260507105518 | 44 | 184 | 3.5 | 6.1 | 0.00 | 0.00 | 0.00 | 67 | 1013.2 |
| 20260507105012 | 44 | 235 | 2.6 | 6.1 | 0.00 | 0.00 | 0.00 | 67 | 1013.2 |
| 20260507104506 | 43 | 189 | 3.5 | 6.1 | 0.00 | 0.00 | 0.00 | 68 | 1013.2 |
| 20260507104000 | 43 | 197 | 3.5 | 6.1 | 0.00 | 0.00 | 0.00 | 68 | 1013.2 |
| 20260507103454 | 43 | 195 | 2.6 | 7.8 | 0.00 | 0.00 | 0.00 | 68 | 1013.3 |
| 20260507102950 | 44 | 204 | 3.5 | 8.7 | 0.00 | 0.00 | 0.00 | 68 | 1013.3 |
| 20260507102442 | 44 | 178 | 3.5 | 8.7 | 0.00 | 0.00 | 0.00 | 68 | 1013.3 |
| 20260507102157 | 43 | 172 | 4.3 | 7.8 | 0.00 | 0.00 | 0.00 | 67 | 1013.4 |
| 20260507101430 | 43 | 174 | 3.5 | 7.8 | 0.00 | 0.00 | 0.00 | 67 | 1013.5 |
| 20260507100924 | 43 | 173 | 2.6 | 6.1 | 0.00 | 0.00 | 0.00 | 67 | 1013.7 |
| 20260507100637 | 43 | 214 | 2.6 | 4.3 | 0.00 | 0.00 | 0.00 | 67 | 1013.8 |
| 20260507100132 | 43 | 233 | 2.6 | 7.0 | 0.00 | 0.00 | 0.00 | 67 | 1013.8 |
| 20260507095407 | 43 | 200 | 2.6 | 8.7 | 0.00 | 0.00 | 0.00 | 66 | 1013.8 |
| 20260507094901 | 43 | 181 | 3.5 | 8.7 | 0.00 | 0.00 | 0.00 | 66 | 1013.8 |
| 20260507094354 | 43 | 179 | 2.6 | 6.1 | 0.00 | 0.00 | 0.00 | 66 | 1013.7 |
| 20260507093849 | 43 | 208 | 1.7 | 5.2 | 0.00 | 0.00 | 0.00 | 66 | 1013.8 |
| 20260507093342 | 43 | 197 | 2.6 | 6.1 | 0.00 | 0.00 | 0.00 | 66 | 1013.8 |
| 20260507092836 | 43 | 177 | 2.6 | 6.1 | 0.00 | 0.00 | 0.00 | 66 | 1013.9 |
| 20260507092330 | 43 | 197 | 2.6 | 5.2 | 0.00 | 0.00 | 0.00 | 66 | 1013.9 |
| 20260507091837 | 43 | 177 | 2.6 | 5.2 | 0.00 | 0.00 | 0.00 | 66 | 1013.8 |
| 20260507091318 | 43 | 173 | 3.5 | 5.2 | 0.00 | 0.00 | 0.00 | 66 | 1013.8 |
| 20260507090818 | 43 | 172 | 2.6 | 5.2 | 0.00 | 0.00 | 0.00 | 66 | 1013.9 |
| 20260507090543 | 43 | 169 | 1.7 | 5.2 | 0.00 | 0.00 | 0.00 | 66 | 1013.9 |
| 20260507085817 | 43 | 178 | 1.7 | 3.5 | 0.00 | 0.00 | 0.00 | 65 | 1013.9 |
| 20260507085317 | 44 | 178 | 1.7 | 4.3 | 0.00 | 0.00 | 0.00 | 65 | 1014.0 |
| 20260507084817 | 44 | 178 | 2.6 | 4.3 | 0.00 | 0.00 | 0.00 | 65 | 1014.0 |
| 20260507084315 | 44 | 184 | 2.6 | 4.3 | 0.00 | 0.00 | 0.00 | 64 | 1014.0 |
| 20260507083813 | 44 | 188 | 2.6 | 4.3 | 0.00 | 0.00 | 0.00 | 64 | 1014.1 |
| 20260507083313 | 44 | 178 | 2.6 | 4.3 | 0.00 | 0.00 | 0.00 | 63 | 1014.1 |
| 20260507082813 | 44 | 183 | 1.7 | 3.5 | 0.00 | 0.00 | 0.00 | 62 | 1014.2 |
| 20260507082318 | 44 | 182 | 1.7 | 3.5 | 0.00 | 0.00 | 0.00 | 62 | 1014.2 |
| 20260507081812 | 44 | 182 | 2.6 | 3.5 | 0.00 | 0.00 | 0.00 | 62 | 1014.3 |
| 20260507081538 | 45 | 184 | 1.7 | 3.5 | 0.00 | 0.00 | 0.00 | 61 | 1014.3 |
| 20260507080812 | 45 | 185 | 1.7 | 3.5 | 0.00 | 0.00 | 0.00 | 61 | 1014.3 |
| 20260507080310 | 45 | 188 | 2.6 | 4.3 | 0.00 | 0.00 | 0.00 | 60 | 1014.3 |
| 20260507075811 | 45 | 189 | 2.6 | 4.3 | 0.00 | 0.00 | 0.00 | 60 | 1014.3 |
| 20260507075307 | 45 | 188 | 2.6 | 4.3 | 0.00 | 0.00 | 0.00 | 60 | 1014.3 |
| 20260507074806 | 45 | 189 | 2.6 | 3.5 | 0.00 | 0.00 | 0.00 | 60 | 1014.3 |
| 20260507074308 | 45 | 188 | 2.6 | 4.3 | 0.00 | 0.00 | 0.00 | 60 | 1014.4 |
| 20260507073807 | 45 | 188 | 2.6 | 4.3 | 0.00 | 0.00 | 0.00 | 59 | 1014.4 |
| 20260507073306 | 46 | 187 | 2.6 | 4.3 | 0.00 | 0.00 | 0.00 | 59 | 1014.5 |
| 20260507072808 | 46 | 190 | 2.6 | 4.3 | 0.00 | 0.00 | 0.00 | 59 | 1014.5 |
| 20260507072308 | 46 | 192 | 2.6 | 5.2 | 0.00 | 0.00 | 0.00 | 58 | 1014.4 |
| 20260507072037 | 46 | 189 | 2.6 | 5.2 | 0.00 | 0.00 | 0.00 | 58 | 1014.5 |
| 20260507071528 | 46 | 190 | 2.6 | 5.2 | 0.00 | 0.00 | 0.00 | 58 | 1014.5 |
| 20260507070806 | 46 | 182 | 2.6 | 3.5 | 0.00 | 0.00 | 0.00 | 58 | 1014.6 |
| 20260507070307 | 46 | 181 | 2.6 | 5.2 | 0.00 | 0.00 | 0.00 | 58 | 1014.6 |
| 20260507065806 | 46 | 178 | 2.6 | 5.2 | 0.00 | 0.00 | 0.00 | 58 | 1014.7 |
| 20260507065307 | 46 | 190 | 2.6 | 5.2 | 0.00 | 0.00 | 0.00 | 58 | 1014.8 |
| 20260507064807 | 46 | 201 | 2.6 | 5.2 | 0.00 | 0.00 | 0.00 | 58 | 1014.9 |
| 20260507064308 | 46 | 199 | 2.6 | 6.1 | 0.00 | 0.00 | 0.00 | 58 | 1014.8 |
| 20260507063806 | 46 | 200 | 2.6 | 6.1 | 0.00 | 0.00 | 0.00 | 58 | 1014.8 |
| 20260507063307 | 46 | 192 | 2.6 | 5.2 | 0.00 | 0.00 | 0.00 | 59 | 1014.9 |
| 20260507062804 | 46 | 196 | 2.6 | 5.2 | 0.00 | 0.00 | 0.00 | 60 | 1014.9 |
| 20260507062257 | 45 | 197 | 2.6 | 5.2 | 0.00 | 0.00 | 0.00 | 61 | 1015.0 |
| 20260507061753 | 44 | 198 | 2.6 | 5.2 | 0.00 | 0.00 | 0.00 | 63 | 1015.0 |
| 20260507061246 | 44 | 216 | 2.6 | 4.3 | 0.00 | 0.00 | 0.00 | 67 | 1015.0 |
| 20260507060741 | 44 | 227 | 1.7 | 3.5 | 0.00 | 0.00 | 0.00 | 68 | 1015.0 |
| 20260507060715 | 44 | 236 | 0.9 | 3.5 | 0.00 | 0.00 | 0.00 | 71 | 1015.1 |
| 20260507055728 | 44 | 322 | 0.0 | 0.9 | 0.00 | 0.00 | 0.00 | 76 | 1015.1 |
| 20260507055223 | 44 | 322 | 0.0 | 0.0 | 0.00 | 0.00 | 0.00 | 76 | 1015.1 |
| 20260507054716 | 44 | 322 | 0.0 | 0.0 | 0.00 | 0.00 | 0.00 | 75 | 1015.1 |
| 20260507054210 | 44 | 321 | 0.0 | 1.7 | 0.00 | 0.00 | 0.00 | 74 | 1015.2 |
| 20260507053704 | 44 | 321 | 0.0 | 1.7 | 0.00 | 0.00 | 0.00 | 72 | 1015.2 |
| 20260507053158 | 44 | 321 | 0.0 | 0.0 | 0.00 | 0.00 | 0.00 | 71 | 1015.3 |
| 20260507052922 | 44 | 321 | 0.0 | 0.0 | 0.00 | 0.00 | 0.00 | 71 | 1015.3 |
| 20260507052403 | 44 | 321 | 0.0 | 0.0 | 0.00 | 0.00 | 0.00 | 69 | 1015.3 |
| 20260507051641 | 44 | 322 | 0.0 | 0.0 | 0.00 | 0.00 | 0.00 | 68 | 1015.3 |
| 20260507051405 | 44 | 317 | 0.0 | 0.0 | 0.00 | 0.00 | 0.00 | 68 | 1015.2 |
| 20260507050628 | 44 | 315 | 0.0 | 0.9 | 0.00 | 0.00 | 0.00 | 68 | 1015.2 |
| 20260507050341 | 44 | 315 | 0.0 | 0.9 | 0.00 | 0.00 | 0.00 | 68 | 1015.2 |
| 20260507045616 | 44 | 310 | 0.0 | 0.0 | 0.00 | 0.00 | 0.00 | 68 | 1015.3 |
| 20260507045109 | 44 | 309 | 0.0 | 0.9 | 0.00 | 0.00 | 0.00 | 66 | 1015.3 |
| 20260507044834 | 44 | 303 | 0.0 | 0.9 | 0.00 | 0.00 | 0.00 | 67 | 1015.2 |
| 20260507044325 | 44 | 302 | 0.0 | 0.0 | 0.00 | 0.00 | 0.00 | 66 | 1015.2 |
| 20260507043550 | 44 | 325 | 0.0 | 0.9 | 0.00 | 0.00 | 0.00 | 65 | 1015.3 |
| 20260507043045 | 44 | 323 | 0.0 | 1.7 | 0.00 | 0.00 | 0.00 | 65 | 1015.3 |
| 20260507042539 | 44 | 323 | 0.0 | 1.7 | 0.00 | 0.00 | 0.00 | 65 | 1015.2 |
| 20260507042033 | 44 | 323 | 0.0 | 0.9 | 0.00 | 0.00 | 0.00 | 65 | 1015.3 |
| 20260507041528 | 44 | 325 | 0.0 | 0.0 | 0.00 | 0.00 | 0.00 | 64 | 1015.3 |
| 20260507041021 | 44 | 325 | 0.0 | 0.0 | 0.00 | 0.00 | 0.00 | 63 | 1015.3 |
| 20260507040515 | 45 | 325 | 0.0 | 0.0 | 0.00 | 0.00 | 0.00 | 61 | 1015.3 |
| 20260507040009 | 45 | 325 | 0.0 | 0.0 | 0.00 | 0.00 | 0.00 | 62 | 1015.2 |
| 20260507035730 | 45 | 325 | 0.0 | 0.0 | 0.00 | 0.00 | 0.00 | 60 | 1015.2 |
| 20260507034959 | 45 | 325 | 0.0 | 0.0 | 0.00 | 0.00 | 0.00 | 59 | 1015.2 |
| 20260507034451 | 46 | 325 | 0.0 | 0.0 | 0.00 | 0.00 | 0.00 | 58 | 1015.2 |
| 20260507033945 | 46 | 325 | 0.0 | 0.0 | 0.00 | 0.00 | 0.00 | 57 | 1015.3 |
| 20260507033439 | 46 | 325 | 0.0 | 0.0 | 0.00 | 0.00 | 0.00 | 56 | 1015.4 |
| 20260507032935 | 46 | 325 | 0.0 | 0.0 | 0.00 | 0.00 | 0.00 | 56 | 1015.3 |
| 20260507032427 | 46 | 324 | 0.0 | 0.0 | 0.00 | 0.00 | 0.00 | 55 | 1015.4 |
| 20260507031921 | 46 | 316 | 0.0 | 0.0 | 0.00 | 0.00 | 0.00 | 56 | 1015.4 |
| 20260507031415 | 47 | 325 | 0.0 | 0.0 | 0.00 | 0.00 | 0.00 | 55 | 1015.4 |
| 20260507030908 | 47 | 320 | 0.0 | 0.0 | 0.00 | 0.00 | 0.00 | 55 | 1015.4 |
| 20260507030402 | 47 | 323 | 0.0 | 0.0 | 0.00 | 0.00 | 0.00 | 51 | 1015.4 |
| 20260507025856 | 47 | 310 | 0.0 | 0.0 | 0.00 | 0.00 | 0.00 | 50 | 1015.3 |
| 20260507025351 | 47 | 325 | 0.0 | 0.0 | 0.00 | 0.00 | 0.00 | 50 | 1015.4 |
| 20260507024847 | 47 | 326 | 0.0 | 0.0 | 0.00 | 0.00 | 0.00 | 50 | 1015.3 |
| 20260507024346 | 48 | 326 | 0.0 | 0.0 | 0.00 | 0.00 | 0.00 | 51 | 1015.3 |
| 20260507023849 | 48 | 326 | 0.0 | 0.0 | 0.00 | 0.00 | 0.00 | 50 | 1015.3 |
| 20260507023349 | 48 | 326 | 0.0 | 0.0 | 0.00 | 0.00 | 0.00 | 50 | 1015.3 |
| 20260507022845 | 49 | 326 | 0.0 | 0.0 | 0.00 | 0.00 | 0.00 | 48 | 1015.3 |
| 20260507022345 | 49 | 326 | 0.0 | 0.0 | 0.00 | 0.00 | 0.00 | 48 | 1015.2 |
| 20260507021847 | 49 | 326 | 0.0 | 0.0 | 0.00 | 0.00 | 0.00 | 48 | 1015.1 |
| 20260507021342 | 49 | 326 | 0.0 | 0.0 | 0.00 | 0.00 | 0.00 | 48 | 1015.0 |
| 20260507021328 | 50 | 326 | 0.0 | 0.0 | 0.00 | 0.00 | 0.00 | 46 | 1015.0 |